Metar z pełnej godziny Komunikat METAR ze strony awiacja.imgw.pl Metar G00 EPLB METAR EPLB 220600Z 27015KT 5000 -RASN OVC014 00/00 Q1022 =